Map

Track Data

SID SEASON NUMBER BASIN SUBBASIN NAME ISO_TIME NATURE LAT LON WMO_WIND WMO_PRES WMO_AGENCY TRACK_TYPE DIST2LAND LANDFALL IFLAG USA_AGENCY USA_ATCF_ID USA_LAT USA_LON USA_RECORD USA_STATUS USA_WIND USA_PRES USA_SSHS USA_R34_NE USA_R34_SE USA_R34_SW USA_R34_NW USA_R50_NE USA_R50_SE USA_R50_SW USA_R50_NW USA_R64_NE USA_R64_SE USA_R64_SW USA_R64_NW USA_POCI USA_ROCI USA_RMW USA_EYE TOKYO_LAT TOKYO_LON TOKYO_GRADE TOKYO_WIND TOKYO_PRES TOKYO_R50_DIR TOKYO_R50_LONG TOKYO_R50_SHORT TOKYO_R30_DIR TOKYO_R30_LONG TOKYO_R30_SHORT TOKYO_LAND CMA_LAT CMA_LON CMA_CAT CMA_WIND CMA_PRES HKO_LAT HKO_LON HKO_CAT HKO_WIND HKO_PRES NEWDELHI_LAT NEWDELHI_LON NEWDELHI_GRADE NEWDELHI_WIND NEWDELHI_PRES NEWDELHI_CI NEWDELHI_DP NEWDELHI_POCI REUNION_LAT REUNION_LON REUNION_TYPE REUNION_WIND REUNION_PRES REUNION_TNUM REUNION_CI REUNION_RMW REUNION_R34_NE REUNION_R34_SE REUNION_R34_SW REUNION_R34_NW REUNION_R50_NE REUNION_R50_SE REUNION_R50_SW REUNION_R50_NW REUNION_R64_NE REUNION_R64_SE REUNION_R64_SW REUNION_R64_NW BOM_LAT BOM_LON BOM_TYPE BOM_WIND BOM_PRES BOM_TNUM BOM_CI BOM_RMW BOM_R34_NE BOM_R34_SE BOM_R34_SW BOM_R34_NW BOM_R50_NE BOM_R50_SE BOM_R50_SW BOM_R50_NW BOM_R64_NE BOM_R64_SE BOM_R64_SW BOM_R64_NW BOM_ROCI BOM_POCI BOM_EYE BOM_POS_METHOD BOM_PRES_METHOD NADI_LAT NADI_LON NADI_CAT NADI_WIND NADI_PRES WELLINGTON_LAT WELLINGTON_LON WELLINGTON_WIND WELLINGTON_PRES DS824_LAT DS824_LON DS824_STAGE DS824_WIND DS824_PRES TD9636_LAT TD9636_LON TD9636_STAGE TD9636_WIND TD9636_PRES TD9635_LAT TD9635_LON TD9635_WIND TD9635_PRES TD9635_ROCI NEUMANN_LAT NEUMANN_LON NEUMANN_CLASS NEUMANN_WIND NEUMANN_PRES MLC_LAT MLC_LON MLC_CLASS MLC_WIND MLC_PRES USA_GUST BOM_GUST BOM_GUST_PER REUNION_GUST REUNION_GUST_PER USA_SEAHGT USA_SEARAD_NE USA_SEARAD_SE USA_SEARAD_SW USA_SEARAD_NW STORM_SPEED STORM_DIR
1912039S17125 1912 5 SI WA NOT_NAMED 1912-02-08 01:00:00 NR -17.0000 124.600 bom main 0 0 ______O_______ -1 -17.0000 124.600 4 279
1912039S17125 1912 5 SI WA NOT_NAMED 1912-02-08 03:00:00 NR -16.9773 124.450 main 0 0 ______P_______ -1 -16.9773 124.450 4 278
1912039S17125 1912 5 SI WA NOT_NAMED 1912-02-08 06:00:00 NR -16.9498 124.225 main 0 0 ______P_______ -1 -16.9498 124.225 4 275
1912039S17125 1912 5 SI WA NOT_NAMED 1912-02-08 09:00:00 NR -16.9394 123.998 main 0 0 ______P_______ -1 -16.9394 123.998 4 269
1912039S17125 1912 5 SI WA NOT_NAMED 1912-02-08 12:00:00 NR -16.9564 123.768 main 0 0 ______P_______ -1 -16.9564 123.768 5 261
1912039S17125 1912 5 SI WA NOT_NAMED 1912-02-08 15:00:00 NR -17.0112 123.533 main 21 0 ______P_______ -1 -17.0112 123.533 5 251
1912039S17125 1912 5 SI WA NOT_NAMED 1912-02-08 18:00:00 NR -17.1142 123.292 main 0 0 ______P_______ -1 -17.1142 123.292 5 240
1912039S17125 1912 5 SI WA NOT_NAMED 1912-02-08 21:00:00 NR -17.2757 123.044 main 0 0 ______P_______ -1 -17.2757 123.044 6 231
1912039S17125 1912 5 SI WA NOT_NAMED 1912-02-09 00:00:00 NR -17.5061 122.788 main 0 0 ______P_______ -1 -17.5061 122.788 7 225
1912039S17125 1912 5 SI WA NOT_NAMED 1912-02-09 01:00:00 NR -17.6000 122.700 bom main 0 0 ______O_______ -1 -17.6000 122.700 8 220
1912039S17125 1912 5 SI WA NOT_NAMED 1912-02-09 03:00:00 NR -17.8135 122.520 main 0 0 ______P_______ -1 -17.8135 122.520 9 217
1912039S17125 1912 5 SI WA NOT_NAMED 1912-02-09 06:00:00 NR -18.1799 122.233 main 10 0 ______P_______ -1 -18.1799 122.233 10 217
1912039S17125 1912 5 SI WA NOT_NAMED 1912-02-09 09:00:00 NR -18.5705 121.915 main 0 0 ______P_______ -1 -18.5705 121.915 10 218
1912039S17125 1912 5 SI WA NOT_NAMED 1912-02-09 10:00:00 NR -18.7000 121.800 bom main 0 0 ______O_______ -1 -18.7000 121.800 10 221
1912039S17125 1912 5 SI WA NOT_NAMED 1912-02-09 12:00:00 NR -18.9537 121.559 main 0 0 ______P_______ -1 -18.9537 121.559 10 223
1912039S17125 1912 5 SI WA NOT_NAMED 1912-02-09 14:00:00 NR -19.2000 121.300 bom main 10 10 ______O_______ -1 -19.2000 121.300 10 226
1912039S17125 1912 5 SI WA NOT_NAMED 1912-02-09 15:00:00 NR -19.3166 121.165 main 10 0 ______P_______ -1 -19.3166 121.165 10 230
1912039S17125 1912 5 SI WA NOT_NAMED 1912-02-09 18:00:00 NR -19.6402 120.745 main 11 0 ______P_______ -1 -19.6402 120.745 10 233
1912039S17125 1912 5 SI WA NOT_NAMED 1912-02-09 21:00:00 NR -19.9338 120.304 main 0 0 ______P_______ -1 -19.9338 120.304 10 236
1912039S17125 1912 5 SI WA NOT_NAMED 1912-02-10 00:00:00 NR -20.2098 119.852 main 0 0 ______P_______ -1 -20.2098 119.852 10 237
1912039S17125 1912 5 SI WA NOT_NAMED 1912-02-10 01:00:00 NR -20.3000 119.700 bom main 0 ______O_______ -1 -20.3000 119.700 10 237

About IBTrACS Database

This database is a web-friendly format of International Best Track Archive for Climate Stewardship (IBTrACS), a global best track data archive curated by NOAA dating back to 1842.

Updated: 2021-10-19